Time;durP1;ratioP1;P1;durP2;ratioP2;P2;SDS_P1;SDS_P2;PMS_P1;PMS_P2;Temp;Humidity;BMP_temperature;BMP_pressure;BME280_temperature;BME280_humidity;BME280_pressure;Samples;Min_cycle;Max_cycle;Signal;HPM_P1;HPM_P2
2023/07/26 00:00:11;;;;;;;4.38;1.77;;;14.00;99.90;;;;;;5138890;27;20043;-84
2023/07/26 00:02:38;;;;;;;6.63;2.15;;;14.00;99.90;;;;;;5119296;27;20134;-84
2023/07/26 00:05:04;;;;;;;8.00;2.97;;;14.00;99.90;;;;;;5120450;27;20043;-84
2023/07/26 00:07:29;;;;;;;5.78;2.47;;;14.00;99.90;;;;;;5136532;27;20481;-84
2023/07/26 00:09:55;;;;;;;6.90;1.95;;;13.90;99.90;;;;;;5136134;27;20071;-84
2023/07/26 00:12:21;;;;;;;6.15;2.30;;;13.90;99.90;;;;;;5132479;27;20401;-84
2023/07/26 00:14:46;;;;;;;4.07;2.17;;;13.90;99.90;;;;;;5118229;27;20039;-83
2023/07/26 00:17:12;;;;;;;6.50;2.35;;;14.10;99.90;;;;;;5120935;27;20751;-84
2023/07/26 00:19:37;;;;;;;4.75;2.22;;;13.90;99.90;;;;;;5131780;27;20039;-84
2023/07/26 00:22:03;;;;;;;4.43;2.05;;;14.10;99.90;;;;;;5117125;27;20046;-84
2023/07/26 00:24:29;;;;;;;4.30;1.92;;;13.90;99.90;;;;;;5096014;27;20075;-84
2023/07/26 00:26:55;;;;;;;7.78;2.75;;;13.90;99.90;;;;;;5126517;27;20058;-84
2023/07/26 00:29:20;;;;;;;5.95;3.05;;;13.90;99.90;;;;;;5134995;27;20039;-84
2023/07/26 00:31:46;;;;;;;5.70;2.55;;;13.90;99.90;;;;;;5117169;27;20116;-84
2023/07/26 00:34:12;;;;;;;4.70;1.83;;;13.90;99.90;;;;;;5107839;27;20046;-84
2023/07/26 00:36:37;;;;;;;8.02;2.92;;;13.90;99.90;;;;;;5136766;27;20035;-84
2023/07/26 00:39:03;;;;;;;5.05;2.28;;;13.90;99.90;;;;;;5118349;27;20046;-84
2023/07/26 00:41:29;;;;;;;5.15;2.90;;;13.90;99.90;;;;;;5121927;27;20046;-84
2023/07/26 00:43:54;;;;;;;5.50;2.53;;;14.10;99.90;;;;;;5137875;27;20117;-84
2023/07/26 00:46:21;;;;;;;6.47;2.60;;;13.90;99.90;;;;;;5135947;27;20082;-84
2023/07/26 00:48:47;;;;;;;7.78;3.03;;;13.90;99.90;;;;;;5137547;27;20114;-84
2023/07/26 00:51:13;;;;;;;4.90;2.63;;;13.80;99.90;;;;;;5134900;27;20868;-84
2023/07/26 00:53:39;;;;;;;5.80;3.30;;;13.80;99.90;;;;;;5116203;27;20138;-84
2023/07/26 00:56:04;;;;;;;6.57;2.95;;;13.80;99.90;;;;;;5103634;27;20118;-84
2023/07/26 00:58:30;;;;;;;5.55;3.17;;;13.80;99.90;;;;;;5122465;27;20168;-84
2023/07/26 01:00:58;;;;;;;7.13;3.33;;;13.70;99.90;;;;;;5121486;27;20047;-84
2023/07/26 01:03:24;;;;;;;6.53;2.95;;;14.00;99.90;;;;;;5118593;27;20066;-84
2023/07/26 01:06:04;;;;;;;6.68;3.45;;;13.60;99.90;;;;;;5116575;27;20057;-84
2023/07/26 01:08:43;;;;;;;7.20;3.15;;;13.60;99.90;;;;;;5142802;27;20512;-84
2023/07/26 01:11:38;;;;;;;5.57;2.80;;;14.00;99.90;;;;;;5117374;27;20051;-83
2023/07/26 01:14:27;;;;;;;9.18;3.75;;;13.70;99.90;;;;;;5093944;27;20058;-84
2023/07/26 01:16:54;;;;;;;7.28;2.85;;;13.60;99.90;;;;;;5122458;27;20549;-84
2023/07/26 01:19:19;;;;;;;6.95;3.63;;;13.80;99.90;;;;;;5117617;27;20035;-84
2023/07/26 01:21:45;;;;;;;6.25;3.40;;;13.60;99.90;;;;;;5137342;27;20038;-83
2023/07/26 01:24:11;;;;;;;9.25;4.20;;;13.60;99.90;;;;;;5140082;27;20035;-83
2023/07/26 01:26:38;;;;;;;7.60;3.30;;;13.60;99.90;;;;;;5136786;27;20497;-84
2023/07/26 01:29:03;;;;;;;6.30;3.58;;;13.60;99.90;;;;;;5117312;27;20045;-83
2023/07/26 01:31:30;;;;;;;7.05;2.88;;;13.60;99.90;;;;;;5135553;27;20400;-84
2023/07/26 01:33:58;;;;;;;10.35;4.22;;;13.60;99.90;;;;;;5120865;27;20039;-84
2023/07/26 01:36:24;;;;;;;8.75;3.42;;;13.80;99.90;;;;;;5107798;27;20087;-84
2023/07/26 01:38:51;;;;;;;7.82;3.50;;;13.60;99.90;;;;;;5134693;27;20501;-84
2023/07/26 01:41:18;;;;;;;5.97;3.60;;;13.60;99.90;;;;;;5116549;27;20476;-84
2023/07/26 01:43:44;;;;;;;7.20;4.00;;;13.60;99.90;;;;;;5125348;27;20046;-84
2023/07/26 01:46:14;;;;;;;8.52;4.10;;;13.60;99.90;;;;;;5106633;27;20067;-84
2023/07/26 01:48:40;;;;;;;7.47;4.07;;;13.60;99.90;;;;;;5118427;27;20188;-84
2023/07/26 01:51:06;;;;;;;8.60;4.43;;;13.50;99.90;;;;;;5114397;27;20053;-84
2023/07/26 01:53:32;;;;;;;9.77;4.28;;;13.50;99.90;;;;;;5136489;27;20039;-82
2023/07/26 01:55:58;;;;;;;7.75;4.68;;;13.50;99.90;;;;;;5136582;27;20039;-84
2023/07/26 01:58:23;;;;;;;7.10;4.18;;;13.50;99.90;;;;;;5118464;27;20094;-84
2023/07/26 02:00:49;;;;;;;8.13;4.30;;;13.50;99.90;;;;;;5123178;27;20130;-83
2023/07/26 02:03:14;;;;;;;7.22;4.18;;;13.40;99.90;;;;;;5119642;27;20127;-84
2023/07/26 02:05:44;;;;;;;6.68;4.10;;;13.40;99.90;;;;;;5122532;27;20388;-84
2023/07/26 02:08:10;;;;;;;7.25;4.00;;;13.30;99.90;;;;;;5139787;27;20043;-83
2023/07/26 02:10:36;;;;;;;6.45;3.78;;;13.30;99.90;;;;;;5136459;27;20496;-84
2023/07/26 02:13:01;;;;;;;7.72;3.90;;;13.30;99.90;;;;;;5122101;27;20039;-84
2023/07/26 02:15:27;;;;;;;8.13;4.13;;;13.30;99.90;;;;;;5140065;27;20031;-84
2023/07/26 02:17:53;;;;;;;6.38;3.83;;;13.30;99.90;;;;;;5123736;27;20035;-84
2023/07/26 02:20:19;;;;;;;7.60;4.40;;;13.20;99.90;;;;;;5122350;27;20485;-83
2023/07/26 02:22:45;;;;;;;5.38;2.97;;;13.20;99.90;;;;;;5145635;27;20031;-84
2023/07/26 02:25:11;;;;;;;8.13;4.70;;;13.20;99.90;;;;;;5119152;27;20081;-84
2023/07/26 02:27:37;;;;;;;7.13;4.47;;;13.20;99.90;;;;;;5139037;27;20435;-84
2023/07/26 02:30:02;;;;;;;9.30;4.55;;;13.20;99.90;;;;;;5120569;27;20031;-84
2023/07/26 02:32:29;;;;;;;7.80;4.47;;;13.10;99.90;;;;;;5140212;27;20022;-83
2023/07/26 02:34:55;;;;;;;5.65;2.95;;;13.10;99.90;;;;;;5112063;27;20074;-83
2023/07/26 02:37:21;;;;;;;8.15;3.95;;;13.10;99.90;;;;;;5117669;27;20110;-84
2023/07/26 02:39:47;;;;;;;6.05;3.58;;;13.10;99.90;;;;;;5120371;27;20895;-84
2023/07/26 02:42:13;;;;;;;9.75;4.85;;;13.00;99.90;;;;;;5118942;27;20047;-84
2023/07/26 02:44:38;;;;;;;6.90;3.78;;;13.00;99.90;;;;;;5125239;27;20535;-84
2023/07/26 02:47:04;;;;;;;7.63;3.50;;;13.00;99.90;;;;;;5124615;27;20038;-84
2023/07/26 02:49:31;;;;;;;9.77;4.18;;;12.90;99.90;;;;;;5139739;27;20086;-84
2023/07/26 02:51:57;;;;;;;8.50;4.72;;;12.90;99.90;;;;;;5136583;27;20134;-83
2023/07/26 02:54:22;;;;;;;9.77;4.57;;;12.90;99.90;;;;;;5139901;27;20113;-84
2023/07/26 02:56:48;;;;;;;8.82;4.78;;;12.90;99.90;;;;;;5141104;27;20031;-84
2023/07/26 02:59:14;;;;;;;8.98;4.93;;;12.90;99.90;;;;;;5116724;27;20126;-84
2023/07/26 03:01:39;;;;;;;9.30;4.93;;;12.80;99.90;;;;;;5116787;27;20043;-84
2023/07/26 03:04:05;;;;;;;7.88;5.05;;;12.80;99.90;;;;;;5114713;27;20043;-84
2023/07/26 03:06:30;;;;;;;10.02;4.85;;;12.80;99.90;;;;;;5117932;27;20118;-84
2023/07/26 03:08:56;;;;;;;6.55;4.03;;;12.80;99.90;;;;;;5116056;27;20037;-84
2023/07/26 03:11:22;;;;;;;8.18;4.85;;;12.80;99.90;;;;;;5139073;27;20432;-84
2023/07/26 03:13:47;;;;;;;6.20;4.00;;;12.70;99.90;;;;;;5105014;27;20031;-84
2023/07/26 03:16:19;;;;;;;6.43;3.63;;;12.70;99.90;;;;;;5121411;27;20141;-84
2023/07/26 03:18:44;;;;;;;7.20;3.97;;;12.70;99.90;;;;;;5116350;27;20669;-84
2023/07/26 03:21:10;;;;;;;9.90;4.75;;;12.70;99.90;;;;;;5139155;27;20091;-84
2023/07/26 03:23:37;;;;;;;8.82;4.30;;;12.70;99.90;;;;;;5139243;27;20042;-84
2023/07/26 03:26:03;;;;;;;10.38;4.90;;;12.70;99.90;;;;;;5137310;27;20035;-84
2023/07/26 03:28:29;;;;;;;8.35;5.28;;;12.70;99.90;;;;;;5137536;27;20092;-84
2023/07/26 03:30:54;;;;;;;9.80;5.75;;;12.70;99.90;;;;;;5136064;27;20197;-84
2023/07/26 03:33:20;;;;;;;6.88;4.63;;;12.70;99.90;;;;;;5146106;27;20038;-84
2023/07/26 03:35:46;;;;;;;8.65;4.95;;;12.50;99.90;;;;;;5134422;27;20054;-84
2023/07/26 03:38:11;;;;;;;7.47;3.80;;;12.60;99.90;;;;;;5139754;27;20031;-83
2023/07/26 03:40:38;;;;;;;8.15;4.20;;;12.60;99.90;;;;;;5118538;27;20035;-84
2023/07/26 03:43:03;;;;;;;8.50;4.65;;;12.60;99.90;;;;;;5136422;27;20429;-84
2023/07/26 03:45:29;;;;;;;8.57;5.53;;;12.60;99.90;;;;;;5131462;27;20035;-83
2023/07/26 03:47:55;;;;;;;10.63;5.10;;;12.50;99.90;;;;;;5116828;27;20050;-83
2023/07/26 03:50:21;;;;;;;7.90;5.07;;;12.60;99.90;;;;;;5141917;27;20429;-84
2023/07/26 03:52:46;;;;;;;8.65;4.70;;;12.50;99.90;;;;;;5119969;27;20464;-84
2023/07/26 03:55:12;;;;;;;8.88;5.28;;;12.50;99.90;;;;;;5136109;27;20446;-84
2023/07/26 03:57:38;;;;;;;10.20;5.75;;;12.50;99.90;;;;;;5143606;27;20456;-83
2023/07/26 04:00:04;;;;;;;6.80;4.35;;;12.60;99.90;;;;;;5135762;27;20114;-84
2023/07/26 04:02:31;;;;;;;7.35;5.00;;;12.60;99.90;;;;;;5137635;27;20042;-83
2023/07/26 04:04:57;;;;;;;8.85;4.80;;;12.60;99.90;;;;;;5119644;27;20098;-84
2023/07/26 04:07:23;;;;;;;10.77;4.15;;;12.70;99.90;;;;;;5119331;27;20047;-84
2023/07/26 04:09:49;;;;;;;8.70;4.75;;;12.70;99.90;;;;;;5119966;27;20396;-84
2023/07/26 04:12:14;;;;;;;6.38;4.00;;;12.70;99.90;;;;;;5114930;27;20100;-84
2023/07/26 04:14:41;;;;;;;9.50;5.20;;;12.70;99.90;;;;;;5104515;27;20034;-81
2023/07/26 04:17:06;;;;;;;10.05;4.97;;;12.70;99.90;;;;;;5120936;27;20031;-81
2023/07/26 04:19:32;;;;;;;8.90;4.72;;;12.70;99.90;;;;;;5132128;27;20058;-82
2023/07/26 04:21:57;;;;;;;9.13;4.93;;;12.80;99.90;;;;;;5120812;27;20027;-82
2023/07/26 04:24:24;;;;;;;8.75;4.75;;;12.70;99.90;;;;;;5099895;27;20051;-82
2023/07/26 04:26:49;;;;;;;6.30;4.18;;;12.80;99.90;;;;;;5137186;27;20043;-82
2023/07/26 04:29:15;;;;;;;8.30;5.00;;;12.80;99.90;;;;;;5118318;27;20407;-82
2023/07/26 04:31:41;;;;;;;8.50;4.40;;;12.80;99.90;;;;;;5116530;27;20418;-81
2023/07/26 04:34:07;;;;;;;7.30;4.28;;;12.80;99.90;;;;;;5137603;27;20126;-81
2023/07/26 04:36:32;;;;;;;8.48;4.50;;;12.80;99.90;;;;;;5101132;27;20046;-81
2023/07/26 04:38:58;;;;;;;7.82;4.40;;;12.80;99.90;;;;;;5120204;27;20032;-81
2023/07/26 04:41:23;;;;;;;8.25;4.60;;;12.80;99.90;;;;;;5114483;27;20494;-82
2023/07/26 04:43:49;;;;;;;6.75;3.85;;;12.80;99.90;;;;;;5116529;27;20047;-82
2023/07/26 04:46:16;;;;;;;7.57;4.40;;;12.80;99.90;;;;;;5114971;27;20042;-81
2023/07/26 04:48:42;;;;;;;8.13;3.50;;;12.80;99.90;;;;;;5121795;27;20433;-82
2023/07/26 04:51:07;;;;;;;8.15;4.78;;;12.80;99.90;;;;;;5107308;27;20128;-82
2023/07/26 04:53:33;;;;;;;9.40;3.80;;;13.10;99.90;;;;;;5125541;27;20042;-82
2023/07/26 04:55:59;;;;;;;9.00;4.85;;;12.80;99.90;;;;;;5133916;27;20027;-82
2023/07/26 04:58:24;;;;;;;8.30;3.80;;;12.90;99.90;;;;;;5120259;27;20110;-82
2023/07/26 05:00:50;;;;;;;7.70;4.07;;;12.90;99.90;;;;;;5130212;27;20050;-82
2023/07/26 05:03:16;;;;;;;7.30;3.90;;;12.90;99.90;;;;;;5133273;27;20113;-81
2023/07/26 05:05:50;;;;;;;7.28;3.75;;;13.00;99.90;;;;;;5118213;27;20179;-81
2023/07/26 05:08:16;;;;;;;6.53;3.80;;;13.00;99.90;;;;;;5123498;27;20039;-82
2023/07/26 05:10:41;;;;;;;6.57;3.08;;;13.00;99.90;;;;;;5124963;27;20045;-81
2023/07/26 05:13:07;;;;;;;5.93;3.05;;;13.10;99.90;;;;;;5120523;27;20038;-82
2023/07/26 05:15:33;;;;;;;6.75;3.58;;;13.20;99.90;;;;;;5118328;27;20119;-81
2023/07/26 05:17:58;;;;;;;6.78;3.13;;;13.20;99.90;;;;;;5132929;27;20036;-81
2023/07/26 05:20:24;;;;;;;5.97;2.97;;;13.20;99.90;;;;;;5101284;27;20113;-81
2023/07/26 05:22:49;;;;;;;5.10;3.00;;;13.30;99.90;;;;;;5119220;27;20066;-81
2023/07/26 05:25:15;;;;;;;6.20;3.05;;;13.30;99.90;;;;;;5134573;27;20461;-81
2023/07/26 05:27:41;;;;;;;6.20;2.80;;;13.40;99.90;;;;;;5106913;27;20070;-81
2023/07/26 05:30:07;;;;;;;5.47;2.65;;;13.70;99.90;;;;;;5114695;27;20122;-81
2023/07/26 05:32:33;;;;;;;6.28;2.83;;;13.40;99.90;;;;;;5116487;27;20499;-81
2023/07/26 05:34:59;;;;;;;5.85;2.53;;;13.50;99.90;;;;;;5120601;27;20475;-82
2023/07/26 05:37:24;;;;;;;6.07;2.42;;;13.50;99.90;;;;;;5118199;27;20062;-81
2023/07/26 05:39:51;;;;;;;4.78;2.17;;;13.50;99.90;;;;;;5143099;27;20047;-82
2023/07/26 05:42:17;;;;;;;4.00;2.33;;;13.50;99.90;;;;;;5142962;27;20030;-81
2023/07/26 05:44:43;;;;;;;6.13;2.40;;;13.50;99.90;;;;;;5146658;27;20038;-81
2023/07/26 05:47:14;;;;;;;4.03;1.80;;;13.60;99.90;;;;;;5137620;27;20569;-81
2023/07/26 05:49:43;;;;;;;5.07;2.17;;;13.60;99.90;;;;;;5142626;27;20038;-82
2023/07/26 05:52:09;;;;;;;6.18;1.95;;;13.60;99.90;;;;;;5109819;27;20035;-81
2023/07/26 05:54:35;;;;;;;6.00;2.30;;;13.70;99.90;;;;;;5118640;27;20031;-81
2023/07/26 05:57:00;;;;;;;4.93;1.90;;;13.80;99.90;;;;;;5117204;27;20075;-82
2023/07/26 05:59:26;;;;;;;5.15;2.17;;;13.70;99.90;;;;;;5122126;27;20041;-81
2023/07/26 06:01:52;;;;;;;3.70;2.00;;;13.70;99.90;;;;;;5122552;27;20047;-81
2023/07/26 06:04:18;;;;;;;5.47;2.50;;;13.60;99.90;;;;;;5128736;27;20054;-81
2023/07/26 06:06:44;;;;;;;7.63;2.58;;;13.60;99.90;;;;;;5123322;27;20039;-81
2023/07/26 06:09:10;;;;;;;5.68;2.67;;;13.70;99.90;;;;;;5106133;27;20039;-82
2023/07/26 06:11:35;;;;;;;4.35;2.10;;;13.70;99.90;;;;;;5125580;27;20037;-81
2023/07/26 06:14:01;;;;;;;4.53;2.00;;;13.70;99.90;;;;;;5119466;27;20028;-81
2023/07/26 06:16:27;;;;;;;5.05;1.45;;;13.70;99.90;;;;;;5138116;27;20401;-81
2023/07/26 06:18:52;;;;;;;5.70;1.80;;;14.10;99.90;;;;;;5120618;27;20061;-82
2023/07/26 06:21:19;;;;;;;7.25;2.10;;;13.80;99.90;;;;;;5135416;27;20034;-81
2023/07/26 06:23:45;;;;;;;4.20;1.75;;;13.80;99.90;;;;;;5119057;27;20107;-81
2023/07/26 06:26:11;;;;;;;3.58;1.67;;;13.90;99.90;;;;;;5121743;27;20043;-81
2023/07/26 06:28:37;;;;;;;5.72;2.28;;;14.00;99.90;;;;;;5140182;27;20046;-81
2023/07/26 06:31:03;;;;;;;3.53;1.40;;;14.10;99.90;;;;;;5138921;27;20095;-81
2023/07/26 06:33:29;;;;;;;2.92;1.23;;;14.10;99.90;;;;;;5135650;27;20070;-81
2023/07/26 06:35:55;;;;;;;3.97;1.60;;;14.20;99.90;;;;;;5138961;27;20071;-81
2023/07/26 06:38:21;;;;;;;5.45;2.17;;;14.20;99.90;;;;;;5135106;27;20039;-81
2023/07/26 06:40:47;;;;;;;5.90;1.98;;;14.30;99.90;;;;;;5129118;27;20121;-81
2023/07/26 06:43:12;;;;;;;6.28;2.42;;;14.40;99.90;;;;;;5133430;27;20905;-80
2023/07/26 06:45:38;;;;;;;4.60;2.38;;;14.50;99.90;;;;;;5115557;27;20141;-81
2023/07/26 06:48:04;;;;;;;5.63;1.75;;;14.60;99.90;;;;;;5122945;27;20030;-80
2023/07/26 06:50:29;;;;;;;5.35;2.10;;;14.70;99.90;;;;;;5121322;27;20561;-81
2023/07/26 06:52:55;;;;;;;3.28;1.60;;;14.70;99.90;;;;;;5119841;27;20039;-81
2023/07/26 06:55:21;;;;;;;4.45;2.15;;;14.70;99.90;;;;;;5140935;27;20035;-80
2023/07/26 06:57:46;;;;;;;4.65;1.98;;;14.70;99.90;;;;;;5111494;27;20038;-80
2023/07/26 07:00:14;;;;;;;6.88;2.45;;;14.70;99.90;;;;;;5117828;27;20229;-80
2023/07/26 07:02:40;;;;;;;6.93;2.03;;;14.80;99.90;;;;;;5123590;27;20050;-80
2023/07/26 07:05:06;;;;;;;4.65;2.08;;;14.90;99.90;;;;;;5121164;27;20047;-80
2023/07/26 07:07:32;;;;;;;4.88;2.00;;;15.00;99.90;;;;;;5138839;27;20132;-80
2023/07/26 07:09:57;;;;;;;4.72;1.52;;;15.10;99.90;;;;;;5147568;27;20097;-80
2023/07/26 07:12:23;;;;;;;3.80;1.83;;;15.10;99.90;;;;;;5118503;27;20034;-81
2023/07/26 07:14:49;;;;;;;4.38;2.15;;;15.00;99.90;;;;;;5122444;27;20038;-80
2023/07/26 07:17:14;;;;;;;5.72;2.40;;;14.90;99.90;;;;;;5135533;27;20576;-82
2023/07/26 07:19:40;;;;;;;4.70;2.13;;;14.80;99.90;;;;;;5108594;27;20361;-82
2023/07/26 07:22:06;;;;;;;5.88;2.33;;;14.80;99.90;;;;;;5124105;27;20569;-81
2023/07/26 07:24:34;;;;;;;5.47;2.00;;;14.70;99.90;;;;;;5143954;27;20039;-80
2023/07/26 07:26:59;;;;;;;6.10;2.22;;;14.60;99.90;;;;;;5142183;27;20050;-81
2023/07/26 07:29:25;;;;;;;5.55;2.35;;;14.50;99.90;;;;;;5143946;27;20031;-81
2023/07/26 07:31:51;;;;;;;7.43;2.40;;;14.50;99.90;;;;;;5134733;27;20031;-80
2023/07/26 07:34:16;;;;;;;6.00;2.10;;;14.30;99.90;;;;;;5134892;27;20042;-79
2023/07/26 07:36:42;;;;;;;7.05;2.15;;;14.20;99.90;;;;;;5136279;27;20038;-80
2023/07/26 07:39:09;;;;;;;5.15;2.00;;;14.20;99.90;;;;;;5117536;27;20493;-80
2023/07/26 07:41:37;;;;;;;5.07;2.10;;;14.10;99.90;;;;;;5138493;27;20041;-80
2023/07/26 07:44:02;;;;;;;7.10;2.20;;;14.10;99.90;;;;;;5122985;27;20039;-80
2023/07/26 07:46:28;;;;;;;5.13;2.13;;;14.10;99.90;;;;;;5138471;27;20034;-79
2023/07/26 07:48:55;;;;;;;6.82;2.03;;;14.20;99.90;;;;;;5141426;27;20042;-80
2023/07/26 07:51:21;;;;;;;5.88;1.75;;;14.20;99.90;;;;;;5144154;27;20027;-80
2023/07/26 07:53:50;;;;;;;4.25;2.13;;;14.30;99.90;;;;;;5143674;27;20102;-81
2023/07/26 07:56:15;;;;;;;5.28;2.30;;;14.30;99.90;;;;;;5139468;27;20038;-80
2023/07/26 07:58:41;;;;;;;5.57;2.08;;;14.30;99.90;;;;;;5139508;27;20034;-80
2023/07/26 08:01:07;;;;;;;4.80;1.98;;;14.30;99.90;;;;;;5145011;27;20633;-80
2023/07/26 08:03:33;;;;;;;5.65;2.55;;;14.30;99.90;;;;;;5141802;27;20478;-80
2023/07/26 08:05:59;;;;;;;6.03;3.08;;;14.40;99.90;;;;;;5144208;27;20039;-83
2023/07/26 08:08:24;;;;;;;6.90;3.50;;;14.70;99.90;;;;;;5108688;27;20043;-81
2023/07/26 08:10:50;;;;;;;6.25;3.17;;;15.00;99.90;;;;;;5143856;27;20053;-81
2023/07/26 08:13:16;;;;;;;6.22;2.80;;;15.30;99.90;;;;;;5106003;27;20482;-81
2023/07/26 08:15:42;;;;;;;4.75;2.90;;;15.50;99.90;;;;;;5138547;27;20461;-81
2023/07/26 08:18:08;;;;;;;5.47;2.20;;;15.60;99.90;;;;;;5124617;27;20046;-82
2023/07/26 08:20:34;;;;;;;3.63;1.92;;;15.70;99.90;;;;;;5140165;27;20035;-82
2023/07/26 08:23:01;;;;;;;3.58;1.80;;;15.70;99.90;;;;;;5123657;27;20035;-82
2023/07/26 08:25:27;;;;;;;3.40;1.77;;;15.70;99.90;;;;;;5121138;27;20037;-82
2023/07/26 08:27:52;;;;;;;3.90;1.65;;;15.60;99.90;;;;;;5139053;27;20031;-82
2023/07/26 08:30:18;;;;;;;3.55;1.45;;;15.60;99.90;;;;;;5121801;27;20042;-81
2023/07/26 08:32:44;;;;;;;2.38;1.20;;;15.60;99.90;;;;;;5121473;27;20110;-82
2023/07/26 08:35:09;;;;;;;2.35;0.90;;;15.60;99.90;;;;;;5126069;27;20126;-81
2023/07/26 08:37:35;;;;;;;3.10;1.25;;;15.70;99.90;;;;;;5121277;27;20034;-82
2023/07/26 08:40:01;;;;;;;3.35;1.40;;;15.70;99.90;;;;;;5098157;27;20064;-81
2023/07/26 08:42:26;;;;;;;3.42;1.27;;;15.80;99.90;;;;;;5113917;27;20920;-82
2023/07/26 08:44:53;;;;;;;3.95;1.80;;;15.60;99.90;;;;;;5132662;27;20470;-81
2023/07/26 08:47:22;;;;;;;4.20;1.58;;;15.70;99.90;;;;;;5134662;27;20187;-82
2023/07/26 08:49:48;;;;;;;2.90;1.38;;;15.80;99.90;;;;;;5115942;27;20051;-82
2023/07/26 08:52:18;;;;;;;2.83;1.27;;;16.00;99.90;;;;;;5134635;27;21354;-82
2023/07/26 08:54:46;;;;;;;5.90;1.80;;;16.10;99.90;;;;;;5122924;27;20039;-81
2023/07/26 08:57:12;;;;;;;3.45;1.23;;;16.20;99.90;;;;;;5129245;27;20117;-80
2023/07/26 08:59:38;;;;;;;3.88;1.52;;;16.20;99.90;;;;;;5134448;27;20039;-80
2023/07/26 09:02:04;;;;;;;2.50;1.30;;;16.10;99.90;;;;;;5129559;27;20066;-80
2023/07/26 09:04:33;;;;;;;3.90;1.60;;;16.20;99.90;;;;;;5111521;27;20039;-80
2023/07/26 09:07:03;;;;;;;3.60;1.45;;;16.10;99.90;;;;;;5129503;27;20035;-80
2023/07/26 09:09:31;;;;;;;3.53;1.45;;;16.10;99.90;;;;;;5116271;27;20674;-79
2023/07/26 09:11:57;;;;;;;3.63;1.60;;;16.20;99.90;;;;;;5129238;27;20023;-80
2023/07/26 09:14:27;;;;;;;4.07;1.85;;;16.30;99.90;;;;;;5111483;27;20107;-80
2023/07/26 09:16:57;;;;;;;3.85;1.70;;;16.50;99.90;;;;;;5129697;27;20027;-80
2023/07/26 09:19:34;;;;;;;5.85;1.50;;;16.50;99.90;;;;;;5114754;27;20046;-80
2023/07/26 09:22:01;;;;;;;3.35;1.70;;;16.60;99.90;;;;;;5111158;27;20031;-80
2023/07/26 09:24:33;;;;;;;4.47;1.77;;;16.60;99.90;;;;;;5116090;27;20047;-81
2023/07/26 09:27:10;;;;;;;4.03;1.70;;;16.70;99.90;;;;;;5130118;27;20050;-83
2023/07/26 09:29:37;;;;;;;3.53;1.70;;;16.90;99.90;;;;;;5116190;27;20047;-80
2023/07/26 09:32:04;;;;;;;3.65;1.58;;;17.00;99.90;;;;;;5137638;27;20039;-80
2023/07/26 09:34:30;;;;;;;5.07;1.83;;;17.10;99.90;;;;;;5111203;27;20070;-81
2023/07/26 09:36:56;;;;;;;4.32;1.75;;;17.20;99.90;;;;;;5104644;27;20073;-80
2023/07/26 09:39:28;;;;;;;3.47;1.80;;;17.40;99.90;;;;;;5148437;27;20073;-81
2023/07/26 09:42:14;;;;;;;3.90;1.80;;;17.60;99.90;;;;;;5139167;27;20095;-81
2023/07/26 09:44:44;;;;;;;4.00;1.52;;;17.70;99.90;;;;;;5141987;27;20062;-81
2023/07/26 09:47:10;;;;;;;4.20;1.73;;;17.80;99.90;;;;;;5142265;27;20477;-81
2023/07/26 09:49:48;;;;;;;4.63;1.73;;;18.00;99.90;;;;;;5143282;27;20038;-81
2023/07/26 09:52:18;;;;;;;4.03;1.50;;;17.90;99.90;;;;;;5138013;27;20049;-81
2023/07/26 09:54:46;;;;;;;4.13;1.80;;;17.90;99.90;;;;;;5122280;27;20544;-81
2023/07/26 09:57:13;;;;;;;5.28;1.60;;;17.90;99.90;;;;;;5138834;27;20027;-81
2023/07/26 09:59:40;;;;;;;4.93;1.80;;;18.00;99.90;;;;;;5138589;27;20138;-81
2023/07/26 10:02:09;;;;;;;3.67;1.50;;;18.10;99.90;;;;;;5140151;27;20058;-81
2023/07/26 10:04:54;;;;;;;5.00;1.60;;;18.20;99.90;;;;;;5140162;27;20077;-82
2023/07/26 10:07:20;;;;;;;;;;;18.20;99.90;;;;;;5121860;27;20039;-81
2023/07/26 10:09:47;;;;;;;6.15;1.98;;;17.90;99.90;;;;;;5138271;27;20285;-82
2023/07/26 10:12:14;;;;;;;4.70;1.88;;;17.80;99.90;;;;;;5138864;27;20064;-81
2023/07/26 10:14:41;;;;;;;4.20;1.98;;;17.60;99.90;;;;;;5136416;27;20528;-81
2023/07/26 10:17:07;;;;;;;3.90;1.70;;;17.50;99.90;;;;;;5139228;27;20039;-81
2023/07/26 10:19:34;;;;;;;3.58;1.70;;;17.40;99.90;;;;;;5139407;27;20109;-82
2023/07/26 10:21:59;;;;;;;4.00;1.95;;;17.30;99.90;;;;;;5118564;27;20118;-81
2023/07/26 10:24:26;;;;;;;5.32;3.22;;;17.30;99.90;;;;;;5142457;27;20134;-81
2023/07/26 10:26:55;;;;;;;3.85;1.90;;;17.40;99.90;;;;;;5142190;27;20041;-82
2023/07/26 10:29:21;;;;;;;3.85;2.00;;;17.50;99.90;;;;;;5125158;27;20050;-81
2023/07/26 10:31:58;;;;;;;4.75;1.80;;;17.60;99.90;;;;;;5116933;27;20484;-81
2023/07/26 10:34:24;;;;;;;4.65;2.00;;;17.80;99.90;;;;;;5117647;27;20086;-81
2023/07/26 10:36:52;;;;;;;4.28;1.90;;;17.90;99.90;;;;;;5141324;27;20496;-81
2023/07/26 10:39:34;;;;;;;4.50;2.25;;;18.00;99.90;;;;;;5146664;27;20516;-81
2023/07/26 10:42:02;;;;;;;5.63;2.20;;;18.10;99.90;;;;;;5144384;27;20042;-81
2023/07/26 10:44:28;;;;;;;6.05;2.30;;;18.20;99.90;;;;;;5121004;27;20505;-80
2023/07/26 10:46:53;;;;;;;5.68;1.88;;;18.30;99.90;;;;;;5115214;27;20070;-81
2023/07/26 10:49:20;;;;;;;3.80;1.67;;;18.40;99.90;;;;;;5104054;27;20130;-81
2023/07/26 10:51:58;;;;;;;4.00;1.85;;;18.50;99.90;;;;;;5127265;27;20027;-81
2023/07/26 10:54:37;;;;;;;3.55;1.80;;;18.70;99.90;;;;;;5141129;27;20477;-81
2023/07/26 10:57:22;;;;;;;3.47;1.58;;;18.80;99.90;;;;;;5145170;27;20038;-80
2023/07/26 11:00:09;;;;;;;4.38;1.27;;;18.90;99.90;;;;;;5112393;27;20287;-81
2023/07/26 11:02:52;;;;;;;3.35;1.20;;;18.80;99.90;;;;;;5135319;27;20054;-81
2023/07/26 11:05:26;;;;;;;3.08;1.33;;;18.80;99.90;;;;;;5143092;27;20046;-81
2023/07/26 11:08:03;;;;;;;3.22;1.40;;;18.80;99.90;;;;;;5127511;27;20034;-82
2023/07/26 11:10:29;;;;;;;4.38;1.33;;;18.90;99.90;;;;;;5147348;27;20035;-82
2023/07/26 11:13:15;;;;;;;4.07;1.40;;;19.10;99.90;;;;;;5134539;27;20039;-82
2023/07/26 11:15:49;;;;;;;3.97;1.50;;;19.40;99.90;;;;;;5148059;27;20078;-81
2023/07/26 11:18:16;;;;;;;4.03;1.80;;;19.50;99.90;;;;;;5132907;27;20108;-81
2023/07/26 11:20:47;;;;;;;3.50;1.77;;;19.50;99.90;;;;;;5122060;27;20068;-81
2023/07/26 11:23:17;;;;;;;5.07;1.85;;;19.50;99.90;;;;;;5135321;27;20045;-81
2023/07/26 11:25:44;;;;;;;3.72;1.60;;;19.50;99.90;;;;;;5119463;27;20033;-83
2023/07/26 11:28:10;;;;;;;2.38;1.10;;;19.60;99.90;;;;;;5146210;27;20038;-82
2023/07/26 11:30:39;;;;;;;3.10;1.20;;;19.70;99.90;;;;;;5135164;27;20346;-81
2023/07/26 11:33:04;;;;;;;2.78;1.00;;;19.80;99.90;;;;;;5146355;27;20500;-81
2023/07/26 11:35:40;;;;;;;1.48;0.63;;;19.70;99.90;;;;;;5121094;27;20037;-82
2023/07/26 11:38:06;;;;;;;1.52;0.60;;;19.50;99.90;;;;;;5144487;27;20034;-82
2023/07/26 11:40:39;;;;;;;1.60;0.60;;;19.20;99.90;;;;;;5127104;27;20035;-82
2023/07/26 11:43:06;;;;;;;1.73;0.70;;;19.00;99.90;;;;;;5139541;27;20042;-82
2023/07/26 11:45:33;;;;;;;1.75;0.60;;;18.80;99.90;;;;;;5137586;27;20077;-82
2023/07/26 11:47:59;;;;;;;2.10;0.68;;;18.60;99.90;;;;;;5112814;27;20027;-81
2023/07/26 11:50:25;;;;;;;1.88;0.70;;;18.40;99.90;;;;;;5120757;27;20031;-82
2023/07/26 11:53:05;;;;;;;2.33;0.98;;;18.20;99.90;;;;;;5147922;27;20035;-81
2023/07/26 11:55:32;;;;;;;1.77;0.65;;;18.10;99.90;;;;;;5142276;27;20480;-81
2023/07/26 11:58:06;;;;;;;3.47;1.10;;;17.90;99.90;;;;;;5113243;27;20035;-82
2023/07/26 12:00:33;;;;;;;3.03;1.02;;;17.80;99.90;;;;;;5138641;27;20049;-82
2023/07/26 12:03:04;;;;;;;7.40;1.02;;;17.60;99.90;;;;;;5117639;27;20721;-81
2023/07/26 12:05:30;;;;;;;6.30;1.52;;;17.60;99.90;;;;;;5137511;27;20027;-81
2023/07/26 12:08:01;;;;;;;5.85;1.50;;;17.50;99.90;;;;;;5142281;27;20023;-81
2023/07/26 12:10:40;;;;;;;4.45;1.23;;;17.30;99.90;;;;;;5126725;27;20043;-81
2023/07/26 12:13:19;;;;;;;8.43;1.50;;;17.10;99.90;;;;;;5115828;27;20042;-81
2023/07/26 12:15:51;;;;;;;3.25;1.38;;;17.00;99.90;;;;;;5139713;27;20079;-81
2023/07/26 12:18:18;;;;;;;5.47;1.50;;;16.90;99.90;;;;;;5138457;27;20233;-81
2023/07/26 12:21:02;;;;;;;3.10;1.20;;;16.90;99.90;;;;;;5144204;27;20027;-81
2023/07/26 12:23:48;;;;;;;3.97;1.17;;;17.00;99.90;;;;;;5135439;27;20062;-81
2023/07/26 12:26:14;;;;;;;4.15;1.30;;;17.20;99.90;;;;;;5116233;27;20039;-81
2023/07/26 12:28:40;;;;;;;3.45;1.55;;;17.50;99.90;;;;;;5101306;27;20071;-81
2023/07/26 12:31:05;;;;;;;3.95;1.45;;;17.80;99.90;;;;;;5115586;27;20083;-81
2023/07/26 12:33:31;;;;;;;3.75;1.40;;;18.10;99.90;;;;;;5137941;27;20088;-81
2023/07/26 12:35:57;;;;;;;4.80;1.70;;;18.30;99.90;;;;;;5141033;27;20080;-81
2023/07/26 12:38:23;;;;;;;2.88;1.20;;;18.20;99.90;;;;;;5133960;27;20047;-81
2023/07/26 12:40:55;;;;;;;10.15;1.90;;;18.20;99.90;;;;;;5134185;27;20035;-81
2023/07/26 12:43:27;;;;;;;7.25;1.80;;;18.10;99.90;;;;;;5132046;27;20043;-81
2023/07/26 12:45:58;;;;;;;4.78;1.58;;;18.00;99.90;;;;;;5136950;27;20088;-81
2023/07/26 12:48:28;;;;;;;3.55;1.85;;;18.00;99.90;;;;;;5133149;27;20134;-81